Time;durP1;ratioP1;P1;durP2;ratioP2;P2;SDS_P1;SDS_P2;PMS_P1;PMS_P2;Temp;Humidity;BMP_temperature;BMP_pressure;BME280_temperature;BME280_humidity;BME280_pressure;Samples;Min_cycle;Max_cycle;Signal;HPM_P1;HPM_P2
2021/10/23 00:00:12;;;;;;;9.40;1.80;;;5.80;94.00;;;;;;4948074;28;20134;-81
2021/10/23 00:02:38;;;;;;;6.90;1.40;;;5.70;93.90;;;;;;4944845;28;20035;-81
2021/10/23 00:05:04;;;;;;;9.13;1.50;;;5.70;94.50;;;;;;4951264;28;20460;-81
2021/10/23 00:07:30;;;;;;;11.68;2.13;;;5.80;94.20;;;;;;4949060;28;20292;-81
2021/10/23 00:09:55;;;;;;;6.72;2.08;;;5.90;94.20;;;;;;4949061;28;20068;-81
2021/10/23 00:12:21;;;;;;;9.77;2.03;;;5.90;94.20;;;;;;4947875;28;20023;-81
2021/10/23 00:14:46;;;;;;;9.32;1.90;;;5.90;94.30;;;;;;4949561;28;20032;-81
2021/10/23 00:17:12;;;;;;;14.32;2.13;;;5.90;94.50;;;;;;4948533;29;20034;-81
2021/10/23 00:19:37;;;;;;;15.90;1.80;;;5.80;94.70;;;;;;4945909;29;20032;-81
2021/10/23 00:22:03;;;;;;;9.13;1.50;;;5.80;94.70;;;;;;4950152;29;20023;-81
2021/10/23 00:24:29;;;;;;;8.43;2.00;;;5.70;94.90;;;;;;4943895;28;20031;-80
2021/10/23 00:26:54;;;;;;;9.43;1.95;;;5.60;95.00;;;;;;4944377;28;20032;-81
2021/10/23 00:29:20;;;;;;;7.68;1.52;;;5.60;95.10;;;;;;4948585;28;20058;-81
2021/10/23 00:31:45;;;;;;;14.13;1.85;;;5.50;95.30;;;;;;4946732;29;20116;-81
2021/10/23 00:34:11;;;;;;;14.18;1.90;;;5.50;95.40;;;;;;4944795;28;20043;-80
2021/10/23 00:36:36;;;;;;;11.02;2.05;;;5.40;95.60;;;;;;4942359;28;20097;-80
2021/10/23 00:39:02;;;;;;;13.40;1.77;;;5.40;95.70;;;;;;4946414;28;20027;-81
2021/10/23 00:41:27;;;;;;;10.27;1.60;;;5.40;95.90;;;;;;4948042;28;20031;-81
2021/10/23 00:43:53;;;;;;;7.65;1.63;;;5.50;96.00;;;;;;4943169;29;20555;-81
2021/10/23 00:46:18;;;;;;;10.05;1.80;;;5.50;96.10;;;;;;4945022;29;20110;-81
2021/10/23 00:48:44;;;;;;;14.18;1.83;;;5.40;96.30;;;;;;4947815;29;20051;-81
2021/10/23 00:51:10;;;;;;;13.70;1.90;;;5.30;96.30;;;;;;4944350;29;20114;-81
2021/10/23 00:53:37;;;;;;;13.25;1.38;;;5.30;96.40;;;;;;4944299;29;20043;-81
2021/10/23 00:56:04;;;;;;;15.90;1.98;;;5.30;96.50;;;;;;4947169;28;20027;-81
2021/10/23 00:58:30;;;;;;;12.05;1.98;;;5.20;96.50;;;;;;4949730;28;20110;-81
2021/10/23 01:00:55;;;;;;;15.73;2.10;;;5.10;96.60;;;;;;4943527;29;20277;-81
2021/10/23 01:03:21;;;;;;;10.75;1.92;;;5.00;96.90;;;;;;4949534;29;20043;-81
2021/10/23 01:05:47;;;;;;;10.30;1.90;;;5.00;96.90;;;;;;4946680;28;20055;-81
2021/10/23 01:08:13;;;;;;;14.90;2.42;;;4.90;96.90;;;;;;4946900;29;20034;-81
2021/10/23 01:10:39;;;;;;;19.88;2.28;;;4.80;97.00;;;;;;4943684;28;20031;-81
2021/10/23 01:13:05;;;;;;;12.27;1.83;;;4.80;97.20;;;;;;4952541;28;20059;-81
2021/10/23 01:15:32;;;;;;;14.95;1.88;;;4.80;97.30;;;;;;4950216;28;20570;-81
2021/10/23 01:17:59;;;;;;;10.27;1.73;;;4.80;97.30;;;;;;4947712;29;20020;-81
2021/10/23 01:20:26;;;;;;;12.45;1.65;;;4.90;97.30;;;;;;4953289;28;20034;-81
2021/10/23 01:22:52;;;;;;;14.95;2.05;;;4.90;97.30;;;;;;4952091;28;20083;-81
2021/10/23 01:25:21;;;;;;;15.50;2.20;;;5.00;97.30;;;;;;4950514;28;20043;-81
2021/10/23 01:27:47;;;;;;;14.70;2.17;;;5.00;97.20;;;;;;4946422;28;20492;-81
2021/10/23 01:30:13;;;;;;;7.15;1.80;;;5.10;97.20;;;;;;4952869;28;20496;-81
2021/10/23 01:32:39;;;;;;;17.58;2.25;;;5.10;97.10;;;;;;4946868;28;20412;-81
2021/10/23 01:35:06;;;;;;;13.90;2.20;;;5.00;96.90;;;;;;4951318;29;20027;-81
2021/10/23 01:37:38;;;;;;;8.88;2.10;;;4.90;96.90;;;;;;4946501;28;20393;-81
2021/10/23 01:40:06;;;;;;;9.77;1.80;;;4.90;97.10;;;;;;4950204;28;20027;-81
2021/10/23 01:42:31;;;;;;;13.70;2.25;;;4.80;97.10;;;;;;4947699;29;20028;-81
2021/10/23 01:44:57;;;;;;;11.60;1.95;;;4.70;97.20;;;;;;4951519;29;20026;-81
2021/10/23 01:47:23;;;;;;;16.95;2.40;;;4.80;97.30;;;;;;4946135;29;20110;-81
2021/10/23 01:49:48;;;;;;;11.98;2.38;;;4.70;97.20;;;;;;4949923;28;20031;-81
2021/10/23 01:52:14;;;;;;;10.95;1.92;;;4.80;97.30;;;;;;4948822;28;20039;-81
2021/10/23 01:54:40;;;;;;;17.52;2.28;;;4.80;97.30;;;;;;4949172;28;20035;-81
2021/10/23 01:57:05;;;;;;;14.98;2.63;;;4.80;97.20;;;;;;4949311;29;20163;-81
2021/10/23 01:59:31;;;;;;;14.48;1.77;;;4.90;97.20;;;;;;4950322;28;20036;-81
2021/10/23 02:01:56;;;;;;;12.20;1.98;;;5.00;97.20;;;;;;4948386;28;20405;-81
2021/10/23 02:04:22;;;;;;;13.20;2.67;;;5.00;97.10;;;;;;4951312;28;20028;-81
2021/10/23 02:06:47;;;;;;;9.90;1.75;;;5.00;97.20;;;;;;4947089;28;20035;-81
2021/10/23 02:09:13;;;;;;;15.13;2.05;;;5.00;97.10;;;;;;4951533;28;20027;-81
2021/10/23 02:11:38;;;;;;;13.85;2.10;;;5.10;97.20;;;;;;4951182;28;20027;-81
2021/10/23 02:14:04;;;;;;;7.68;1.70;;;5.00;97.30;;;;;;4949234;29;20481;-81
2021/10/23 02:16:30;;;;;;;11.48;1.98;;;4.90;97.30;;;;;;4950296;29;20082;-81
2021/10/23 02:18:55;;;;;;;13.32;2.00;;;4.90;97.30;;;;;;4951072;28;20024;-81
2021/10/23 02:21:21;;;;;;;15.32;1.92;;;4.80;97.40;;;;;;4947440;29;20444;-81
2021/10/23 02:23:46;;;;;;;10.00;2.15;;;4.80;97.40;;;;;;4949369;28;20019;-81
2021/10/23 02:26:12;;;;;;;13.55;2.30;;;4.90;97.40;;;;;;4945171;29;20034;-81
2021/10/23 02:28:38;;;;;;;12.55;1.92;;;4.80;97.30;;;;;;4949445;29;20034;-81
2021/10/23 02:31:03;;;;;;;7.70;1.90;;;4.80;97.40;;;;;;5004639;23;20054;-76
2021/10/23 02:33:29;;;;;;;12.05;1.60;;;4.80;97.40;;;;;;4962807;28;20039;-77
2021/10/23 02:35:54;;;;;;;17.20;1.90;;;4.70;97.40;;;;;;4959121;28;20215;-77
2021/10/23 02:38:20;;;;;;;9.98;1.67;;;4.60;97.40;;;;;;4965868;28;20132;-77
2021/10/23 02:40:45;;;;;;;16.33;2.20;;;4.50;97.50;;;;;;4966090;28;20536;-77
2021/10/23 02:43:11;;;;;;;17.63;2.35;;;4.60;97.70;;;;;;4968098;28;20072;-76
2021/10/23 02:45:37;;;;;;;17.02;1.88;;;4.50;97.70;;;;;;4965618;28;20045;-75
2021/10/23 02:48:02;;;;;;;19.15;1.75;;;4.60;97.90;;;;;;4964687;28;20035;-77
2021/10/23 02:50:28;;;;;;;15.18;2.15;;;4.70;98.00;;;;;;4965002;28;20267;-77
2021/10/23 02:52:54;;;;;;;11.82;1.67;;;4.70;97.90;;;;;;4965734;28;20440;-76
2021/10/23 02:55:20;;;;;;;16.73;1.90;;;4.70;97.90;;;;;;4963573;28;20030;-76
2021/10/23 02:57:45;;;;;;;15.32;2.28;;;4.70;97.90;;;;;;4965049;28;20162;-76
2021/10/23 03:00:11;;;;;;;17.15;2.38;;;4.70;98.00;;;;;;4966908;28;20102;-78
2021/10/23 03:02:37;;;;;;;17.75;1.63;;;4.80;98.10;;;;;;4960637;28;20098;-76
2021/10/23 03:05:04;;;;;;;10.95;1.67;;;5.00;97.70;;;;;;4969580;28;20031;-76
2021/10/23 03:07:30;;;;;;;18.35;2.20;;;5.10;97.40;;;;;;4961201;28;20085;-76
2021/10/23 03:09:56;;;;;;;14.88;2.60;;;5.10;97.30;;;;;;4963729;28;20488;-77
2021/10/23 03:12:22;;;;;;;10.10;1.90;;;5.10;97.10;;;;;;4964294;28;20112;-75
2021/10/23 03:14:48;;;;;;;12.90;1.85;;;5.10;97.20;;;;;;4963439;28;20173;-75
2021/10/23 03:17:13;;;;;;;8.55;1.95;;;5.10;97.20;;;;;;4970011;28;20492;-76
2021/10/23 03:19:39;;;;;;;14.50;1.85;;;5.30;97.00;;;;;;4965250;28;20576;-78
2021/10/23 03:22:04;;;;;;;9.63;1.60;;;5.20;96.90;;;;;;4964578;28;20023;-77
2021/10/23 03:24:30;;;;;;;13.45;1.67;;;5.20;96.80;;;;;;4967716;28;20324;-76
2021/10/23 03:26:55;;;;;;;9.18;1.80;;;5.20;96.90;;;;;;4966201;28;20053;-76
2021/10/23 03:29:21;;;;;;;8.48;1.58;;;5.20;96.90;;;;;;4961633;28;20091;-76
2021/10/23 03:31:46;;;;;;;11.40;1.50;;;5.20;97.00;;;;;;4963494;28;20201;-76
2021/10/23 03:34:12;;;;;;;15.88;1.98;;;5.10;97.10;;;;;;4961938;28;20046;-78
2021/10/23 03:36:37;;;;;;;19.33;1.70;;;5.10;97.20;;;;;;4961760;28;20029;-76
2021/10/23 03:39:04;;;;;;;20.40;2.22;;;5.00;97.20;;;;;;4965136;28;20042;-77
2021/10/23 03:41:29;;;;;;;13.38;2.03;;;5.00;97.30;;;;;;4964122;28;20101;-75
2021/10/23 03:43:55;;;;;;;9.85;1.98;;;4.90;97.40;;;;;;4969104;28;20121;-76
2021/10/23 03:46:20;;;;;;;11.95;1.83;;;4.90;97.40;;;;;;4966384;28;20031;-75
2021/10/23 03:48:46;;;;;;;11.15;1.63;;;4.90;97.40;;;;;;4961626;28;20427;-75
2021/10/23 03:51:11;;;;;;;17.20;2.17;;;4.80;97.50;;;;;;4970959;28;20174;-74
2021/10/23 03:53:37;;;;;;;11.05;1.83;;;4.80;97.60;;;;;;4963308;28;20030;-77
2021/10/23 03:56:02;;;;;;;12.35;2.10;;;4.70;97.60;;;;;;4963428;28;20110;-78
2021/10/23 03:58:28;;;;;;;15.35;2.00;;;4.80;97.70;;;;;;4962062;28;20027;-76
2021/10/23 04:00:53;;;;;;;12.35;1.75;;;4.70;97.60;;;;;;4960228;28;20094;-76
2021/10/23 04:03:19;;;;;;;12.13;1.85;;;4.70;97.70;;;;;;4965078;28;20018;-76
2021/10/23 04:05:44;;;;;;;7.35;2.00;;;4.70;97.70;;;;;;4962827;28;20035;-76
2021/10/23 04:08:10;;;;;;;15.38;1.77;;;4.60;97.70;;;;;;4961074;28;20461;-76
2021/10/23 04:10:35;;;;;;;12.93;2.00;;;4.70;97.80;;;;;;4966588;28;20381;-76
2021/10/23 04:13:01;;;;;;;12.07;1.58;;;4.60;97.80;;;;;;4964588;28;20060;-78
2021/10/23 04:15:26;;;;;;;11.10;1.45;;;4.60;97.80;;;;;;4965496;28;20114;-76
2021/10/23 04:17:52;;;;;;;12.68;2.00;;;4.60;97.80;;;;;;4963955;28;20033;-76
2021/10/23 04:20:17;;;;;;;19.63;2.50;;;4.60;97.90;;;;;;4964280;28;20041;-81
2021/10/23 04:22:43;;;;;;;13.05;2.00;;;4.60;97.70;;;;;;4963025;28;20027;-78
2021/10/23 04:25:09;;;;;;;19.50;2.05;;;4.60;97.90;;;;;;4963468;28;20034;-78
2021/10/23 04:27:34;;;;;;;15.45;2.08;;;4.50;97.90;;;;;;4962947;28;20027;-77
2021/10/23 04:30:00;;;;;;;13.23;2.22;;;4.50;98.00;;;;;;4963554;28;20038;-79
2021/10/23 04:32:26;;;;;;;25.52;2.22;;;4.40;97.90;;;;;;4963570;28;20026;-79
2021/10/23 04:34:51;;;;;;;13.85;2.17;;;4.40;98.00;;;;;;4964070;28;20114;-78
2021/10/23 04:37:17;;;;;;;13.85;1.92;;;4.50;98.10;;;;;;4960120;28;20504;-78
2021/10/23 04:39:42;;;;;;;11.95;1.90;;;4.50;98.10;;;;;;4960533;28;20031;-77
2021/10/23 04:42:08;;;;;;;15.48;2.55;;;4.60;98.10;;;;;;4964937;28;20027;-80
2021/10/23 04:44:34;;;;;;;13.65;2.05;;;4.70;97.90;;;;;;4963296;28;20030;-77
2021/10/23 04:46:59;;;;;;;14.95;1.80;;;4.70;97.80;;;;;;4963831;28;20137;-77
2021/10/23 04:49:25;;;;;;;11.73;2.17;;;4.70;97.80;;;;;;4967283;28;20034;-79
2021/10/23 04:51:50;;;;;;;10.15;1.80;;;4.70;97.70;;;;;;4966799;28;20555;-78
2021/10/23 04:54:16;;;;;;;15.88;2.50;;;4.80;97.70;;;;;;4968012;28;20038;-77
2021/10/23 04:56:41;;;;;;;13.63;1.70;;;4.80;97.60;;;;;;4968074;28;20023;-77
2021/10/23 04:59:07;;;;;;;8.70;1.88;;;4.80;97.60;;;;;;4966882;28;20057;-78
2021/10/23 05:01:32;;;;;;;14.52;2.20;;;4.90;97.70;;;;;;4964282;28;20027;-78
2021/10/23 05:03:58;;;;;;;16.77;2.40;;;4.90;97.60;;;;;;4967944;28;20035;-78
2021/10/23 05:06:23;;;;;;;16.02;2.33;;;5.00;97.60;;;;;;4966165;28;20121;-78
2021/10/23 05:08:49;;;;;;;10.57;2.17;;;5.00;97.60;;;;;;4965152;28;20388;-77
2021/10/23 05:11:14;;;;;;;12.27;1.73;;;5.00;97.60;;;;;;4962927;28;20262;-77
2021/10/23 05:13:40;;;;;;;15.02;2.10;;;5.10;97.70;;;;;;4964653;28;20138;-77
2021/10/23 05:16:05;;;;;;;12.40;2.55;;;5.10;97.60;;;;;;4966524;28;20042;-77
2021/10/23 05:18:31;;;;;;;13.75;2.10;;;5.10;97.60;;;;;;4967513;28;20536;-77
2021/10/23 05:20:56;;;;;;;14.13;2.08;;;5.10;97.50;;;;;;4962015;28;20350;-80
2021/10/23 05:23:22;;;;;;;10.60;2.35;;;5.10;97.50;;;;;;4965696;28;20434;-78
2021/10/23 05:25:47;;;;;;;11.50;1.65;;;5.00;97.50;;;;;;4966123;28;20257;-78
2021/10/23 05:28:13;;;;;;;10.07;1.70;;;5.00;97.40;;;;;;4966397;28;20493;-76
2021/10/23 05:30:39;;;;;;;9.77;2.17;;;5.00;97.60;;;;;;4964359;28;20085;-77
2021/10/23 05:33:05;;;;;;;15.70;2.17;;;4.90;97.60;;;;;;4965537;28;20031;-77
2021/10/23 05:35:31;;;;;;;10.65;1.90;;;5.00;97.70;;;;;;4967702;28;20030;-78
2021/10/23 05:37:57;;;;;;;10.43;1.90;;;5.00;97.60;;;;;;4965619;28;20081;-77
2021/10/23 05:40:22;;;;;;;15.50;2.15;;;4.90;97.70;;;;;;4965930;28;20033;-79
2021/10/23 05:42:48;;;;;;;13.02;1.63;;;4.80;97.70;;;;;;4966294;28;20519;-79
2021/10/23 05:45:14;;;;;;;8.75;1.90;;;4.80;97.80;;;;;;4968037;28;20825;-76
2021/10/23 05:47:39;;;;;;;11.60;1.80;;;4.80;97.90;;;;;;4966834;28;20444;-77
2021/10/23 05:50:07;;;;;;;9.73;1.98;;;4.80;98.00;;;;;;4963812;28;20457;-79
2021/10/23 05:52:33;;;;;;;12.85;1.75;;;4.90;97.90;;;;;;4968535;28;20491;-79
2021/10/23 05:54:58;;;;;;;15.80;1.85;;;4.80;98.00;;;;;;4966177;28;20038;-77
2021/10/23 05:57:24;;;;;;;12.10;1.90;;;4.80;98.00;;;;;;4964521;28;20026;-78
2021/10/23 05:59:50;;;;;;;11.23;1.70;;;4.80;97.90;;;;;;4961771;28;20046;-78
2021/10/23 06:02:23;;;;;;;16.20;2.03;;;4.70;98.00;;;;;;4965357;28;20350;-78
2021/10/23 06:04:54;;;;;;;12.65;2.08;;;4.60;97.90;;;;;;4964216;28;20034;-77
2021/10/23 06:07:20;;;;;;;15.45;1.88;;;4.60;98.00;;;;;;4966447;28;20215;-77
2021/10/23 06:09:46;;;;;;;20.33;2.33;;;4.60;98.10;;;;;;4965885;28;20097;-78
2021/10/23 06:12:12;;;;;;;11.30;2.22;;;4.60;98.20;;;;;;4964745;28;20145;-81
2021/10/23 06:14:38;;;;;;;10.23;1.85;;;4.60;98.20;;;;;;4966586;28;20496;-78
2021/10/23 06:17:05;;;;;;;12.77;2.88;;;4.60;98.20;;;;;;4966570;28;20030;-79
2021/10/23 06:19:31;;;;;;;11.68;2.47;;;4.60;98.20;;;;;;4965781;28;20019;-78
2021/10/23 06:21:57;;;;;;;15.95;3.05;;;4.50;98.20;;;;;;4963291;28;20028;-77
2021/10/23 06:24:22;;;;;;;14.82;2.90;;;4.60;98.30;;;;;;4964457;28;20341;-77
2021/10/23 06:26:47;;;;;;;15.65;2.80;;;4.70;98.50;;;;;;4964732;28;20087;-77
2021/10/23 06:29:13;;;;;;;17.58;3.67;;;4.80;98.30;;;;;;4965293;28;20039;-79
2021/10/23 06:31:38;;;;;;;22.23;2.95;;;4.90;98.30;;;;;;4964362;28;20027;-77
2021/10/23 06:34:04;;;;;;;19.88;3.15;;;4.90;98.30;;;;;;4963967;28;20031;-78
2021/10/23 06:36:29;;;;;;;9.70;2.15;;;5.00;98.20;;;;;;4965811;28;20031;-77
2021/10/23 06:38:55;;;;;;;15.35;2.88;;;5.00;98.10;;;;;;4961093;28;20217;-77
2021/10/23 06:41:20;;;;;;;16.42;2.92;;;5.10;98.10;;;;;;4962148;28;20114;-78
2021/10/23 06:43:46;;;;;;;15.13;2.47;;;5.10;98.10;;;;;;4964907;28;20027;-77
2021/10/23 06:46:11;;;;;;;16.10;2.80;;;5.10;98.00;;;;;;4966134;28;20114;-77
2021/10/23 06:48:37;;;;;;;9.80;2.55;;;5.10;98.00;;;;;;4964118;28;20023;-78
2021/10/23 06:51:02;;;;;;;13.23;1.95;;;5.20;98.00;;;;;;4963964;28;20170;-79
2021/10/23 06:53:28;;;;;;;14.02;2.35;;;5.20;97.90;;;;;;4966289;28;20395;-77
2021/10/23 06:55:53;;;;;;;14.45;2.42;;;5.30;97.80;;;;;;4965517;28;20484;-78
2021/10/23 06:58:19;;;;;;;9.25;2.03;;;5.40;97.80;;;;;;4964699;28;20053;-79
2021/10/23 07:00:44;;;;;;;14.55;2.58;;;5.40;97.70;;;;;;4965153;28;20026;-77
2021/10/23 07:03:10;;;;;;;12.98;2.35;;;5.50;97.60;;;;;;4967289;28;20030;-78
2021/10/23 07:05:36;;;;;;;12.25;2.13;;;5.50;97.50;;;;;;4965272;28;20405;-77
2021/10/23 07:08:01;;;;;;;12.07;1.77;;;5.60;97.50;;;;;;4959671;28;20031;-78
2021/10/23 07:10:27;;;;;;;19.35;2.45;;;5.60;97.40;;;;;;4960002;28;20039;-78
2021/10/23 07:12:53;;;;;;;7.07;1.90;;;5.60;97.40;;;;;;4962729;28;20460;-79
2021/10/23 07:15:19;;;;;;;9.93;1.65;;;5.60;97.30;;;;;;4965585;28;20113;-79
2021/10/23 07:17:44;;;;;;;12.18;1.83;;;5.70;97.10;;;;;;4962886;28;20118;-78
2021/10/23 07:20:11;;;;;;;8.95;1.50;;;5.70;96.90;;;;;;4958008;28;20083;-79
2021/10/23 07:22:37;;;;;;;6.78;1.60;;;5.80;96.90;;;;;;4959593;28;20500;-78
2021/10/23 07:25:03;;;;;;;15.57;2.13;;;5.90;96.70;;;;;;4959575;28;20030;-77
2021/10/23 07:27:29;;;;;;;12.43;2.20;;;6.00;96.70;;;;;;4961198;28;20027;-80
2021/10/23 07:29:54;;;;;;;13.75;2.20;;;6.00;96.80;;;;;;4962885;28;20666;-78
2021/10/23 07:32:20;;;;;;;13.32;1.90;;;6.10;96.70;;;;;;4959513;28;20027;-80
2021/10/23 07:34:45;;;;;;;12.57;2.10;;;6.10;96.50;;;;;;4961530;28;20031;-79
2021/10/23 07:37:11;;;;;;;16.27;1.95;;;6.10;96.50;;;;;;4965955;28;20262;-78
2021/10/23 07:39:37;;;;;;;11.75;2.17;;;6.10;96.40;;;;;;4960754;28;20035;-77
2021/10/23 07:42:04;;;;;;;6.82;1.85;;;6.20;96.50;;;;;;4963416;28;20456;-78
2021/10/23 07:44:29;;;;;;;5.28;1.73;;;6.30;96.60;;;;;;4965674;28;20083;-78
2021/10/23 07:46:55;;;;;;;12.50;1.73;;;6.30;96.40;;;;;;4964360;28;20057;-79
2021/10/23 07:49:20;;;;;;;12.40;1.80;;;6.40;96.10;;;;;;4965310;28;20511;-77
2021/10/23 07:51:46;;;;;;;15.02;2.00;;;6.40;96.20;;;;;;4964724;28;20138;-78
2021/10/23 07:54:11;;;;;;;5.35;1.30;;;6.50;96.00;;;;;;4963614;28;20031;-81
2021/10/23 07:56:40;;;;;;;7.13;1.48;;;6.50;95.90;;;;;;4961400;28;20432;-79
2021/10/23 07:59:06;;;;;;;11.23;1.75;;;6.50;95.80;;;;;;4960686;28;20027;-79
2021/10/23 08:01:31;;;;;;;9.13;2.03;;;6.60;95.80;;;;;;4958701;28;20053;-79
2021/10/23 08:03:57;;;;;;;10.57;1.40;;;6.60;95.80;;;;;;4959402;28;20031;-77
2021/10/23 08:06:22;;;;;;;6.13;1.40;;;6.60;95.80;;;;;;4961394;28;20123;-78
2021/10/23 08:08:48;;;;;;;7.45;1.73;;;6.70;95.50;;;;;;4962734;28;20401;-77
2021/10/23 08:11:14;;;;;;;7.30;1.88;;;6.60;95.30;;;;;;4963479;28;20249;-79
2021/10/23 08:13:39;;;;;;;11.70;2.10;;;6.70;95.60;;;;;;4965543;28;20089;-77
2021/10/23 08:16:05;;;;;;;9.30;1.98;;;6.70;95.60;;;;;;4963119;28;20492;-78
2021/10/23 08:18:31;;;;;;;7.55;1.80;;;6.80;95.60;;;;;;4963535;28;20031;-78
2021/10/23 08:20:57;;;;;;;5.80;1.52;;;6.90;95.40;;;;;;4962717;28;20026;-81
2021/10/23 08:23:23;;;;;;;9.38;1.90;;;6.90;95.50;;;;;;4965475;28;20128;-78
2021/10/23 08:25:50;;;;;;;14.32;1.45;;;6.90;95.70;;;;;;4966297;28;20215;-78
2021/10/23 08:28:16;;;;;;;11.35;1.60;;;7.00;95.70;;;;;;4968120;28;20431;-78
2021/10/23 08:30:41;;;;;;;10.70;1.88;;;7.00;95.90;;;;;;5023583;23;20043;-65
2021/10/23 08:33:07;;;;;;;9.80;1.63;;;7.10;95.70;;;;;;4962174;28;20027;-64
2021/10/23 08:35:33;;;;;;;5.78;1.42;;;7.00;95.60;;;;;;4962677;28;20126;-66
2021/10/23 08:37:59;;;;;;;7.85;1.50;;;7.10;95.40;;;;;;4965576;28;20416;-64
2021/10/23 08:40:25;;;;;;;9.50;1.30;;;7.10;95.50;;;;;;4962341;28;20019;-64
2021/10/23 08:42:50;;;;;;;7.57;1.60;;;7.10;95.50;;;;;;4945655;28;20032;-63
2021/10/23 08:45:17;;;;;;;13.38;2.83;;;7.20;95.20;;;;;;4954439;28;20090;-64
2021/10/23 08:47:44;;;;;;;10.55;1.95;;;7.30;95.00;;;;;;4951094;28;20077;-64
2021/10/23 08:50:14;;;;;;;7.57;1.75;;;7.50;94.40;;;;;;4948940;28;20303;-64
2021/10/23 08:52:40;;;;;;;10.27;1.58;;;7.80;94.00;;;;;;4949161;28;20443;-64
2021/10/23 08:55:06;;;;;;;9.38;1.55;;;8.00;93.40;;;;;;4945303;28;20193;-64
2021/10/23 08:57:32;;;;;;;7.80;1.98;;;8.10;93.30;;;;;;4952081;28;20123;-64
2021/10/23 08:59:58;;;;;;;4.88;1.50;;;8.10;93.10;;;;;;4950392;28;20126;-65
2021/10/23 09:02:25;;;;;;;7.78;1.50;;;8.00;92.30;;;;;;4948876;28;20062;-65
2021/10/23 09:04:52;;;;;;;8.27;1.67;;;8.10;92.30;;;;;;4962496;28;20037;-65
2021/10/23 09:07:18;;;;;;;6.75;1.80;;;8.20;93.10;;;;;;4945332;28;20398;-65
2021/10/23 09:09:45;;;;;;;9.75;2.13;;;8.10;92.30;;;;;;4948507;28;20041;-65
2021/10/23 09:12:26;;;;;;;9.45;1.67;;;8.20;92.70;;;;;;4950141;28;20376;-64
2021/10/23 09:15:10;;;;;;;4.75;1.00;;;8.10;92.70;;;;;;4929876;28;20041;-65
2021/10/23 09:17:38;;;;;;;5.35;1.23;;;8.20;93.20;;;;;;4939866;28;20020;-64
2021/10/23 09:20:10;;;;;;;9.27;1.90;;;8.30;92.60;;;;;;4937707;28;20490;-64
2021/10/23 09:22:47;;;;;;;6.68;1.60;;;8.40;92.20;;;;;;4941522;28;20036;-64
2021/10/23 09:25:30;;;;;;;3.58;1.27;;;8.30;91.70;;;;;;4948073;28;20273;-64
2021/10/23 09:28:04;;;;;;;8.65;1.75;;;8.40;91.50;;;;;;4946242;28;20038;-64
2021/10/23 09:30:37;;;;;;;5.50;1.20;;;8.50;92.10;;;;;;4944376;28;20127;-65
2021/10/23 09:33:05;;;;;;;9.63;1.60;;;8.40;91.20;;;;;;4947789;28;20074;-65
2021/10/23 09:35:32;;;;;;;10.23;1.63;;;8.50;91.70;;;;;;4946417;28;20034;-64
2021/10/23 09:38:00;;;;;;;9.52;1.35;;;8.80;91.80;;;;;;4939607;28;20106;-65
2021/10/23 09:40:27;;;;;;;4.78;1.08;;;8.80;91.30;;;;;;4944100;28;20458;-64
2021/10/23 09:43:15;;;;;;;4.90;1.35;;;8.60;90.90;;;;;;4947452;28;20211;-65
2021/10/23 09:45:58;;;;;;;12.18;1.83;;;8.60;91.40;;;;;;4939417;28;20034;-64
2021/10/23 09:48:38;;;;;;;13.32;2.75;;;8.90;91.40;;;;;;4945024;28;20496;-64
2021/10/23 09:51:26;;;;;;;10.52;1.65;;;9.00;90.60;;;;;;4947278;28;20474;-65
2021/10/23 09:53:55;;;;;;;7.85;1.92;;;9.00;91.00;;;;;;4958410;28;20043;-64
2021/10/23 09:56:26;;;;;;;4.47;1.35;;;8.80;91.20;;;;;;4943401;28;20522;-64
2021/10/23 09:58:54;;;;;;;3.35;1.23;;;8.90;90.90;;;;;;4938980;28;20291;-65
2021/10/23 10:01:25;;;;;;;7.10;1.55;;;9.10;91.30;;;;;;4939761;28;20110;-65
2021/10/23 10:03:58;;;;;;;9.50;1.70;;;9.20;90.60;;;;;;4943976;28;20364;-64
2021/10/23 10:06:26;;;;;;;6.22;1.17;;;9.30;89.70;;;;;;4949555;28;20031;-64
2021/10/23 10:08:52;;;;;;;9.15;1.30;;;9.30;89.50;;;;;;4943199;28;20043;-64
2021/10/23 10:11:21;;;;;;;7.90;1.67;;;9.30;90.00;;;;;;4945357;28;20224;-64
2021/10/23 10:13:48;;;;;;;8.20;1.40;;;9.30;90.20;;;;;;4941829;28;20028;-64
2021/10/23 10:16:14;;;;;;;8.55;1.70;;;9.30;89.50;;;;;;4943713;28;20367;-64
2021/10/23 10:18:41;;;;;;;8.35;1.55;;;9.30;89.60;;;;;;4946137;28;20031;-64
2021/10/23 10:21:09;;;;;;;6.82;1.58;;;9.30;89.90;;;;;;4942993;28;20027;-65
2021/10/23 10:23:39;;;;;;;11.63;1.88;;;9.30;89.60;;;;;;4940260;28;20035;-65
2021/10/23 10:26:25;;;;;;;9.55;1.63;;;9.30;89.50;;;;;;4943642;28;20027;-65
2021/10/23 10:29:25;;;;;;;5.90;1.45;;;9.50;89.80;;;;;;4942387;28;20659;-64
2021/10/23 10:31:59;;;;;;;8.60;1.90;;;9.60;88.90;;;;;;4951615;28;20041;-64
2021/10/23 10:43:07;;;;;;;7.97;1.48;;;10.00;89.00;;;;;;4949452;28;20031;-64
2021/10/23 10:45:48;;;;;;;8.30;1.63;;;10.30;88.10;;;;;;4942137;28;20386;-64
2021/10/23 10:48:26;;;;;;;5.88;1.08;;;10.40;87.70;;;;;;4944202;28;20031;-64
2021/10/23 10:50:55;;;;;;;7.15;1.15;;;10.00;86.60;;;;;;4946544;28;20172;-65
2021/10/23 10:53:34;;;;;;;5.05;1.10;;;10.10;87.60;;;;;;4942383;28;20027;-65
2021/10/23 10:56:03;;;;;;;7.18;1.02;;;10.10;87.20;;;;;;4936887;28;20039;-64
2021/10/23 10:58:50;;;;;;;6.05;1.58;;;10.00;87.10;;;;;;4943534;28;20014;-69
2021/10/23 11:01:22;;;;;;;7.85;1.63;;;9.90;87.70;;;;;;4945812;28;20111;-68
2021/10/23 11:04:02;;;;;;;11.15;1.70;;;9.90;87.30;;;;;;4946559;28;20102;-69
2021/10/23 11:09:08;;;;;;;7.53;1.13;;;10.00;87.60;;;;;;4937277;28;20031;-68
2021/10/23 11:11:45;;;;;;;12.55;1.58;;;10.10;87.30;;;;;;4939980;28;20030;-68
2021/10/23 11:16:58;;;;;;;21.73;3.30;;;10.10;86.70;;;;;;4946502;28;20039;-68
2021/10/23 11:19:43;;;;;;;31.00;2.55;;;9.90;86.40;;;;;;4950425;28;20042;-68
2021/10/23 11:22:25;;;;;;;6.30;1.33;;;10.00;86.70;;;;;;4943737;28;20027;-68
2021/10/23 11:24:52;;;;;;;7.35;1.13;;;10.10;87.00;;;;;;4938562;28;20093;-68
2021/10/23 11:27:50;;;;;;;4.30;1.25;;;10.40;87.00;;;;;;4944783;28;20506;-69
2021/10/23 11:30:23;;;;;;;3.85;1.00;;;10.30;86.20;;;;;;4948644;28;20035;-68
2021/10/23 11:32:52;;;;;;;9.68;1.50;;;10.40;86.30;;;;;;4945253;28;20079;-69
2021/10/23 11:35:18;;;;;;;4.30;0.90;;;10.20;85.90;;;;;;4937470;28;20884;-68
2021/10/23 11:37:51;;;;;;;5.68;1.48;;;10.30;87.00;;;;;;4942943;28;20023;-68
2021/10/23 11:40:17;;;;;;;6.07;1.05;;;10.40;86.30;;;;;;4943723;28;20046;-68
2021/10/23 11:42:52;;;;;;;10.00;1.10;;;10.60;84.90;;;;;;4942564;28;20023;-68
2021/10/23 11:45:27;;;;;;;6.40;1.35;;;10.60;85.10;;;;;;4942032;28;20027;-69
2021/10/23 11:47:57;;;;;;;12.40;3.10;;;10.60;83.90;;;;;;4943706;28;20038;-68
2021/10/23 11:50:36;;;;;;;6.25;1.25;;;10.70;84.00;;;;;;4946505;28;20379;-68
2021/10/23 11:53:13;;;;;;;3.58;0.80;;;10.60;84.10;;;;;;4950898;28;20031;-68
2021/10/23 11:55:42;;;;;;;11.65;1.27;;;10.70;83.40;;;;;;4938947;28;20042;-68
2021/10/23 11:58:10;;;;;;;21.27;3.17;;;10.80;84.10;;;;;;4935856;28;20054;-68
2021/10/23 12:00:39;;;;;;;6.75;1.20;;;11.00;83.30;;;;;;4953438;28;20031;-68
2021/10/23 12:03:07;;;;;;;6.65;1.42;;;10.90;82.80;;;;;;4947748;28;20075;-68
2021/10/23 12:05:49;;;;;;;3.40;1.05;;;11.00;83.80;;;;;;4936276;28;20027;-68
2021/10/23 12:08:18;;;;;;;6.82;1.35;;;11.00;83.00;;;;;;4938868;28;20345;-68
2021/10/23 12:11:19;;;;;;;9.57;1.23;;;11.10;84.20;;;;;;4935809;28;20140;-68
2021/10/23 12:14:02;;;;;;;7.95;1.40;;;11.00;83.40;;;;;;4945613;28;20036;-68
2021/10/23 12:16:48;;;;;;;6.78;1.10;;;11.20;84.40;;;;;;4944178;28;20031;-68
2021/10/23 12:19:16;;;;;;;5.13;1.10;;;11.30;82.30;;;;;;4938792;28;20508;-68
2021/10/23 12:21:46;;;;;;;3.85;0.98;;;11.20;83.20;;;;;;4944720;28;20035;-68
2021/10/23 12:24:17;;;;;;;8.18;1.30;;;11.10;82.50;;;;;;4938424;28;20091;-68
2021/10/23 12:26:58;;;;;;;6.90;1.33;;;11.10;83.80;;;;;;4945417;28;20431;-68
2021/10/23 12:29:44;;;;;;;5.57;1.20;;;11.20;83.80;;;;;;4936025;28;20098;-68
2021/10/23 12:32:20;;;;;;;5.18;0.98;;;11.40;82.00;;;;;;4938684;28;20728;-69
2021/10/23 12:34:51;;;;;;;6.63;1.30;;;12.00;81.00;;;;;;4947508;28;20035;-69
2021/10/23 12:37:25;;;;;;;4.28;0.93;;;12.10;79.30;;;;;;4940704;28;20035;-68
2021/10/23 12:40:10;;;;;;;7.93;1.27;;;12.20;78.60;;;;;;4934587;28;20050;-69
2021/10/23 12:42:39;;;;;;;6.60;1.05;;;12.30;78.50;;;;;;4939123;28;20487;-68
2021/10/23 12:45:06;;;;;;;9.18;1.40;;;12.00;79.70;;;;;;4941404;28;20427;-68
2021/10/23 12:47:32;;;;;;;3.60;0.70;;;11.70;80.60;;;;;;4937022;28;20039;-69
2021/10/23 12:49:57;;;;;;;5.28;1.05;;;11.50;81.90;;;;;;4942440;28;20035;-68
2021/10/23 12:52:23;;;;;;;7.47;1.42;;;11.30;81.60;;;;;;4954786;28;20062;-68
2021/10/23 12:54:49;;;;;;;4.82;1.30;;;11.20;82.40;;;;;;4936586;28;20118;-68
2021/10/23 12:57:14;;;;;;;8.18;1.30;;;11.00;81.90;;;;;;4948327;28;20107;-68
2021/10/23 12:59:40;;;;;;;4.90;0.98;;;11.00;82.90;;;;;;4940243;28;20035;-68
2021/10/23 13:02:06;;;;;;;5.95;1.35;;;11.00;83.30;;;;;;4939548;28;20454;-68
2021/10/23 13:04:31;;;;;;;5.85;1.23;;;10.80;83.70;;;;;;4938876;28;20768;-69
2021/10/23 13:06:57;;;;;;;10.73;1.75;;;10.70;83.70;;;;;;4937308;28;20032;-68